sensor_id;sensor_type;location;lat;lon;timestamp;P1;durP1;ratioP1;P2;durP2;ratioP2
36995;SDS011;22905;50.340;10.776;2023-02-26T00:04:21;4.70;;;2.20;;
36995;SDS011;22905;50.340;10.776;2023-02-26T00:09:21;9.47;;;2.57;;
36995;SDS011;22905;50.340;10.776;2023-02-26T00:14:22;6.78;;;3.38;;
36995;SDS011;22905;50.340;10.776;2023-02-26T00:19:22;5.38;;;3.00;;
36995;SDS011;22905;50.340;10.776;2023-02-26T00:24:23;10.80;;;2.72;;
36995;SDS011;22905;50.340;10.776;2023-02-26T00:29:23;7.03;;;3.15;;
36995;SDS011;22905;50.340;10.776;2023-02-26T00:34:23;6.25;;;2.80;;
36995;SDS011;22905;50.340;10.776;2023-02-26T00:39:35;5.40;;;2.40;;
36995;SDS011;22905;50.340;10.776;2023-02-26T00:44:42;2.25;;;2.05;;
36995;SDS011;22905;50.340;10.776;2023-02-26T00:49:48;5.80;;;2.20;;
36995;SDS011;22905;50.340;10.776;2023-02-26T00:55:00;3.28;;;2.10;;
36995;SDS011;22905;50.340;10.776;2023-02-26T01:00:01;2.20;;;2.00;;
36995;SDS011;22905;50.340;10.776;2023-02-26T01:05:05;4.25;;;2.67;;
36995;SDS011;22905;50.340;10.776;2023-02-26T01:10:06;3.72;;;2.38;;
36995;SDS011;22905;50.340;10.776;2023-02-26T01:15:07;3.85;;;2.05;;
36995;SDS011;22905;50.340;10.776;2023-02-26T01:20:30;3.33;;;2.30;;
36995;SDS011;22905;50.340;10.776;2023-02-26T01:25:47;5.35;;;2.53;;
36995;SDS011;22905;50.340;10.776;2023-02-26T01:30:57;5.28;;;2.25;;
36995;SDS011;22905;50.340;10.776;2023-02-26T01:36:06;3.33;;;2.10;;
36995;SDS011;22905;50.340;10.776;2023-02-26T01:52:02;5.93;;;2.00;;
36995;SDS011;22905;50.340;10.776;2023-02-26T01:57:08;6.13;;;2.00;;
36995;SDS011;22905;50.340;10.776;2023-02-26T02:02:11;13.77;;;3.70;;
36995;SDS011;22905;50.340;10.776;2023-02-26T02:07:12;4.47;;;2.50;;
36995;SDS011;22905;50.340;10.776;2023-02-26T02:12:31;6.25;;;2.38;;
36995;SDS011;22905;50.340;10.776;2023-02-26T02:17:50;31.48;;;6.15;;
36995;SDS011;22905;50.340;10.776;2023-02-26T02:28:36;7.67;;;2.20;;
36995;SDS011;22905;50.340;10.776;2023-02-26T02:34:02;7.38;;;2.03;;
36995;SDS011;22905;50.340;10.776;2023-02-26T02:39:06;4.47;;;2.33;;
36995;SDS011;22905;50.340;10.776;2023-02-26T02:44:10;4.22;;;2.15;;
36995;SDS011;22905;50.340;10.776;2023-02-26T02:49:13;2.55;;;2.35;;
36995;SDS011;22905;50.340;10.776;2023-02-26T02:54:23;5.05;;;2.22;;
36995;SDS011;22905;50.340;10.776;2023-02-26T03:04:48;2.92;;;2.58;;
36995;SDS011;22905;50.340;10.776;2023-02-26T03:09:48;6.20;;;3.28;;
36995;SDS011;22905;50.340;10.776;2023-02-26T03:14:49;4.20;;;2.17;;
36995;SDS011;22905;50.340;10.776;2023-02-26T03:30:03;3.17;;;2.03;;
36995;SDS011;22905;50.340;10.776;2023-02-26T03:40:57;5.18;;;1.77;;
36995;SDS011;22905;50.340;10.776;2023-02-26T03:46:02;4.07;;;1.45;;
36995;SDS011;22905;50.340;10.776;2023-02-26T03:51:06;2.17;;;1.70;;
36995;SDS011;22905;50.340;10.776;2023-02-26T03:56:15;5.40;;;2.10;;
36995;SDS011;22905;50.340;10.776;2023-02-26T04:01:22;5.47;;;1.98;;
36995;SDS011;22905;50.340;10.776;2023-02-26T04:06:25;3.50;;;2.33;;
36995;SDS011;22905;50.340;10.776;2023-02-26T04:11:25;2.00;;;1.83;;
36995;SDS011;22905;50.340;10.776;2023-02-26T04:16:26;5.45;;;1.60;;
36995;SDS011;22905;50.340;10.776;2023-02-26T04:21:26;4.20;;;1.65;;
36995;SDS011;22905;50.340;10.776;2023-02-26T04:26:27;4.20;;;1.67;;
36995;SDS011;22905;50.340;10.776;2023-02-26T04:31:27;3.83;;;2.00;;
36995;SDS011;22905;50.340;10.776;2023-02-26T04:36:27;1.73;;;1.63;;
36995;SDS011;22905;50.340;10.776;2023-02-26T04:41:28;2.10;;;2.00;;
36995;SDS011;22905;50.340;10.776;2023-02-26T04:46:28;5.05;;;1.38;;
36995;SDS011;22905;50.340;10.776;2023-02-26T04:51:28;1.65;;;1.55;;
36995;SDS011;22905;50.340;10.776;2023-02-26T04:56:29;2.07;;;1.80;;
36995;SDS011;22905;50.340;10.776;2023-02-26T05:01:31;6.03;;;1.90;;
36995;SDS011;22905;50.340;10.776;2023-02-26T05:06:31;1.95;;;1.85;;
36995;SDS011;22905;50.340;10.776;2023-02-26T05:11:31;2.67;;;1.60;;
36995;SDS011;22905;50.340;10.776;2023-02-26T05:16:32;1.77;;;1.67;;
36995;SDS011;22905;50.340;10.776;2023-02-26T05:21:32;7.93;;;1.95;;
36995;SDS011;22905;50.340;10.776;2023-02-26T05:26:33;2.22;;;1.90;;
36995;SDS011;22905;50.340;10.776;2023-02-26T05:31:33;3.78;;;2.30;;
36995;SDS011;22905;50.340;10.776;2023-02-26T05:36:33;3.17;;;2.03;;
36995;SDS011;22905;50.340;10.776;2023-02-26T05:41:34;3.03;;;1.92;;
36995;SDS011;22905;50.340;10.776;2023-02-26T05:46:34;2.22;;;1.92;;
36995;SDS011;22905;50.340;10.776;2023-02-26T05:51:34;1.80;;;1.60;;
36995;SDS011;22905;50.340;10.776;2023-02-26T05:56:35;1.83;;;1.73;;
36995;SDS011;22905;50.340;10.776;2023-02-26T06:01:35;2.00;;;1.47;;
36995;SDS011;22905;50.340;10.776;2023-02-26T06:06:36;1.77;;;1.67;;
36995;SDS011;22905;50.340;10.776;2023-02-26T06:11:36;1.60;;;1.50;;
36995;SDS011;22905;50.340;10.776;2023-02-26T06:16:38;1.63;;;1.52;;
36995;SDS011;22905;50.340;10.776;2023-02-26T06:21:38;1.52;;;1.15;;
36995;SDS011;22905;50.340;10.776;2023-02-26T06:26:39;1.55;;;1.45;;
36995;SDS011;22905;50.340;10.776;2023-02-26T06:31:39;1.92;;;1.20;;
36995;SDS011;22905;50.340;10.776;2023-02-26T06:36:39;1.58;;;1.48;;
36995;SDS011;22905;50.340;10.776;2023-02-26T06:41:40;1.50;;;1.40;;
36995;SDS011;22905;50.340;10.776;2023-02-26T06:46:40;1.23;;;1.23;;
36995;SDS011;22905;50.340;10.776;2023-02-26T06:51:40;2.75;;;1.50;;
36995;SDS011;22905;50.340;10.776;2023-02-26T06:56:40;1.08;;;1.08;;
36995;SDS011;22905;50.340;10.776;2023-02-26T07:01:41;2.38;;;1.67;;
36995;SDS011;22905;50.340;10.776;2023-02-26T07:06:41;2.80;;;1.35;;
36995;SDS011;22905;50.340;10.776;2023-02-26T07:11:41;6.72;;;1.80;;
36995;SDS011;22905;50.340;10.776;2023-02-26T07:16:42;3.83;;;1.80;;
36995;SDS011;22905;50.340;10.776;2023-02-26T07:21:42;4.43;;;1.65;;
36995;SDS011;22905;50.340;10.776;2023-02-26T07:26:42;3.35;;;2.55;;
36995;SDS011;22905;50.340;10.776;2023-02-26T07:31:43;2.10;;;1.77;;
36995;SDS011;22905;50.340;10.776;2023-02-26T07:36:43;2.58;;;1.73;;
36995;SDS011;22905;50.340;10.776;2023-02-26T07:41:44;2.03;;;1.70;;
36995;SDS011;22905;50.340;10.776;2023-02-26T07:46:44;4.22;;;2.30;;
36995;SDS011;22905;50.340;10.776;2023-02-26T07:51:44;2.17;;;1.83;;
36995;SDS011;22905;50.340;10.776;2023-02-26T07:56:45;1.97;;;1.60;;
36995;SDS011;22905;50.340;10.776;2023-02-26T08:01:45;1.67;;;1.57;;
36995;SDS011;22905;50.340;10.776;2023-02-26T08:06:45;1.80;;;1.70;;
36995;SDS011;22905;50.340;10.776;2023-02-26T08:11:46;2.63;;;1.98;;
36995;SDS011;22905;50.340;10.776;2023-02-26T08:16:46;1.50;;;1.40;;
36995;SDS011;22905;50.340;10.776;2023-02-26T08:21:47;2.28;;;2.10;;
36995;SDS011;22905;50.340;10.776;2023-02-26T08:26:47;1.75;;;1.45;;
36995;SDS011;22905;50.340;10.776;2023-02-26T08:31:47;2.10;;;1.60;;
36995;SDS011;22905;50.340;10.776;2023-02-26T08:36:48;1.50;;;1.40;;
36995;SDS011;22905;50.340;10.776;2023-02-26T08:41:49;1.60;;;1.50;;
36995;SDS011;22905;50.340;10.776;2023-02-26T08:46:49;1.10;;;1.10;;
36995;SDS011;22905;50.340;10.776;2023-02-26T08:51:49;1.58;;;1.40;;
36995;SDS011;22905;50.340;10.776;2023-02-26T08:56:51;1.55;;;1.30;;
36995;SDS011;22905;50.340;10.776;2023-02-26T09:01:54;1.98;;;1.88;;
36995;SDS011;22905;50.340;10.776;2023-02-26T09:06:55;1.33;;;1.23;;
36995;SDS011;22905;50.340;10.776;2023-02-26T09:11:55;1.65;;;1.35;;
36995;SDS011;22905;50.340;10.776;2023-02-26T09:16:56;3.80;;;1.20;;
36995;SDS011;22905;50.340;10.776;2023-02-26T09:21:56;2.83;;;1.77;;
36995;SDS011;22905;50.340;10.776;2023-02-26T09:26:56;3.38;;;1.90;;
36995;SDS011;22905;50.340;10.776;2023-02-26T09:31:57;4.05;;;2.58;;
36995;SDS011;22905;50.340;10.776;2023-02-26T09:36:57;1.08;;;1.00;;
36995;SDS011;22905;50.340;10.776;2023-02-26T09:41:58;1.55;;;1.45;;
36995;SDS011;22905;50.340;10.776;2023-02-26T09:47:04;2.72;;;1.00;;
36995;SDS011;22905;50.340;10.776;2023-02-26T09:52:20;4.90;;;1.33;;
36995;SDS011;22905;50.340;10.776;2023-02-26T09:57:24;2.78;;;1.52;;
36995;SDS011;22905;50.340;10.776;2023-02-26T10:02:35;2.00;;;1.30;;
36995;SDS011;22905;50.340;10.776;2023-02-26T10:12:41;1.90;;;1.48;;
36995;SDS011;22905;50.340;10.776;2023-02-26T10:28:40;2.53;;;1.88;;
36995;SDS011;22905;50.340;10.776;2023-02-26T10:33:54;13.15;;;5.38;;
36995;SDS011;22905;50.340;10.776;2023-02-26T10:39:10;9.68;;;2.78;;
36995;SDS011;22905;50.340;10.776;2023-02-26T10:44:19;4.68;;;2.38;;
36995;SDS011;22905;50.340;10.776;2023-02-26T10:54:38;4.47;;;2.35;;
36995;SDS011;22905;50.340;10.776;2023-02-26T10:59:43;2.90;;;1.83;;
36995;SDS011;22905;50.340;10.776;2023-02-26T11:04:43;3.00;;;2.03;;
36995;SDS011;22905;50.340;10.776;2023-02-26T11:09:44;4.82;;;2.28;;
36995;SDS011;22905;50.340;10.776;2023-02-26T11:14:46;2.03;;;1.27;;
36995;SDS011;22905;50.340;10.776;2023-02-26T11:19:56;2.63;;;2.10;;
36995;SDS011;22905;50.340;10.776;2023-02-26T11:24:58;1.50;;;1.40;;
36995;SDS011;22905;50.340;10.776;2023-02-26T11:30:02;3.88;;;1.77;;
36995;SDS011;22905;50.340;10.776;2023-02-26T11:35:08;9.00;;;2.00;;
36995;SDS011;22905;50.340;10.776;2023-02-26T11:40:17;2.28;;;2.08;;
36995;SDS011;22905;50.340;10.776;2023-02-26T11:45:21;3.00;;;2.15;;
36995;SDS011;22905;50.340;10.776;2023-02-26T11:50:21;2.70;;;2.25;;
36995;SDS011;22905;50.340;10.776;2023-02-26T11:55:33;3.40;;;1.73;;
36995;SDS011;22905;50.340;10.776;2023-02-26T12:00:36;2.90;;;1.73;;
36995;SDS011;22905;50.340;10.776;2023-02-26T12:05:37;1.98;;;1.60;;
36995;SDS011;22905;50.340;10.776;2023-02-26T12:10:39;1.70;;;1.60;;
36995;SDS011;22905;50.340;10.776;2023-02-26T12:21:21;1.70;;;1.60;;
36995;SDS011;22905;50.340;10.776;2023-02-26T12:26:33;2.13;;;1.95;;
36995;SDS011;22905;50.340;10.776;2023-02-26T12:31:51;5.55;;;1.77;;
36995;SDS011;22905;50.340;10.776;2023-02-26T12:47:42;3.13;;;1.48;;
36995;SDS011;22905;50.340;10.776;2023-02-26T12:53:10;2.10;;;1.20;;
36995;SDS011;22905;50.340;10.776;2023-02-26T12:58:35;1.50;;;1.30;;
36995;SDS011;22905;50.340;10.776;2023-02-26T13:20:12;1.75;;;1.25;;
36995;SDS011;22905;50.340;10.776;2023-02-26T13:35:40;3.30;;;1.48;;
36995;SDS011;22905;50.340;10.776;2023-02-26T13:40:51;1.95;;;0.90;;
36995;SDS011;22905;50.340;10.776;2023-02-26T13:46:13;2.08;;;1.00;;
36995;SDS011;22905;50.340;10.776;2023-02-26T13:56:51;3.53;;;1.10;;
36995;SDS011;22905;50.340;10.776;2023-02-26T14:01:55;1.38;;;0.80;;
36995;SDS011;22905;50.340;10.776;2023-02-26T14:06:58;2.92;;;1.20;;
36995;SDS011;22905;50.340;10.776;2023-02-26T14:12:24;6.20;;;2.13;;
36995;SDS011;22905;50.340;10.776;2023-02-26T14:17:37;1.40;;;1.30;;
36995;SDS011;22905;50.340;10.776;2023-02-26T14:22:49;2.85;;;1.33;;
36995;SDS011;22905;50.340;10.776;2023-02-26T14:28:17;1.10;;;1.00;;
36995;SDS011;22905;50.340;10.776;2023-02-26T14:33:25;1.45;;;1.00;;
36995;SDS011;22905;50.340;10.776;2023-02-26T14:38:32;1.85;;;1.25;;
36995;SDS011;22905;50.340;10.776;2023-02-26T14:43:36;1.52;;;1.10;;
36995;SDS011;22905;50.340;10.776;2023-02-26T14:53:41;3.00;;;1.40;;
36995;SDS011;22905;50.340;10.776;2023-02-26T14:59:14;7.38;;;3.70;;
36995;SDS011;22905;50.340;10.776;2023-02-26T15:04:32;7.13;;;1.85;;
36995;SDS011;22905;50.340;10.776;2023-02-26T15:09:47;4.78;;;1.88;;
36995;SDS011;22905;50.340;10.776;2023-02-26T15:25:28;1.85;;;1.38;;
36995;SDS011;22905;50.340;10.776;2023-02-26T15:30:30;1.60;;;1.50;;
36995;SDS011;22905;50.340;10.776;2023-02-26T15:35:31;4.38;;;1.45;;
36995;SDS011;22905;50.340;10.776;2023-02-26T15:40:34;3.30;;;1.27;;
36995;SDS011;22905;50.340;10.776;2023-02-26T15:50:38;2.15;;;1.40;;
36995;SDS011;22905;50.340;10.776;2023-02-26T15:55:50;3.47;;;2.25;;
36995;SDS011;22905;50.340;10.776;2023-02-26T16:00:53;5.53;;;1.97;;
36995;SDS011;22905;50.340;10.776;2023-02-26T16:05:55;2.37;;;1.50;;
36995;SDS011;22905;50.340;10.776;2023-02-26T16:10:57;3.72;;;2.15;;
36995;SDS011;22905;50.340;10.776;2023-02-26T16:16:00;2.05;;;1.52;;
36995;SDS011;22905;50.340;10.776;2023-02-26T16:21:04;1.63;;;1.13;;
36995;SDS011;22905;50.340;10.776;2023-02-26T16:26:06;1.17;;;1.10;;
36995;SDS011;22905;50.340;10.776;2023-02-26T16:31:10;2.10;;;1.83;;
36995;SDS011;22905;50.340;10.776;2023-02-26T16:36:18;6.22;;;2.35;;
36995;SDS011;22905;50.340;10.776;2023-02-26T16:41:23;3.25;;;2.28;;
36995;SDS011;22905;50.340;10.776;2023-02-26T16:51:33;2.17;;;1.98;;
36995;SDS011;22905;50.340;10.776;2023-02-26T16:56:39;6.78;;;2.10;;
36995;SDS011;22905;50.340;10.776;2023-02-26T17:01:45;9.77;;;2.90;;
36995;SDS011;22905;50.340;10.776;2023-02-26T17:06:46;7.18;;;2.58;;
36995;SDS011;22905;50.340;10.776;2023-02-26T17:11:47;5.55;;;2.33;;
36995;SDS011;22905;50.340;10.776;2023-02-26T17:16:48;2.10;;;1.90;;
36995;SDS011;22905;50.340;10.776;2023-02-26T17:21:50;2.55;;;1.92;;
36995;SDS011;22905;50.340;10.776;2023-02-26T17:26:53;4.80;;;2.25;;
36995;SDS011;22905;50.340;10.776;2023-02-26T17:31:54;6.65;;;3.88;;
36995;SDS011;22905;50.340;10.776;2023-02-26T17:36:54;7.35;;;3.85;;
36995;SDS011;22905;50.340;10.776;2023-02-26T17:41:55;7.95;;;3.95;;
36995;SDS011;22905;50.340;10.776;2023-02-26T17:46:56;10.15;;;2.60;;
36995;SDS011;22905;50.340;10.776;2023-02-26T17:51:56;5.33;;;3.40;;
36995;SDS011;22905;50.340;10.776;2023-02-26T17:56:56;10.65;;;4.13;;
36995;SDS011;22905;50.340;10.776;2023-02-26T18:01:58;7.77;;;4.00;;
36995;SDS011;22905;50.340;10.776;2023-02-26T18:06:58;7.65;;;4.28;;
36995;SDS011;22905;50.340;10.776;2023-02-26T18:11:59;6.07;;;3.83;;
36995;SDS011;22905;50.340;10.776;2023-02-26T18:16:59;7.40;;;3.28;;
36995;SDS011;22905;50.340;10.776;2023-02-26T18:21:59;5.17;;;3.50;;
36995;SDS011;22905;50.340;10.776;2023-02-26T18:27:00;8.88;;;4.82;;
36995;SDS011;22905;50.340;10.776;2023-02-26T18:32:00;7.50;;;5.13;;
36995;SDS011;22905;50.340;10.776;2023-02-26T18:37:02;14.50;;;4.57;;
36995;SDS011;22905;50.340;10.776;2023-02-26T18:42:03;10.35;;;4.40;;
36995;SDS011;22905;50.340;10.776;2023-02-26T18:47:04;10.38;;;5.60;;
36995;SDS011;22905;50.340;10.776;2023-02-26T18:52:04;13.93;;;6.53;;
36995;SDS011;22905;50.340;10.776;2023-02-26T18:57:05;7.63;;;4.93;;
36995;SDS011;22905;50.340;10.776;2023-02-26T19:02:06;8.70;;;4.93;;
36995;SDS011;22905;50.340;10.776;2023-02-26T19:07:07;14.35;;;5.72;;
36995;SDS011;22905;50.340;10.776;2023-02-26T19:12:08;12.70;;;5.95;;
36995;SDS011;22905;50.340;10.776;2023-02-26T19:17:08;8.68;;;4.45;;
36995;SDS011;22905;50.340;10.776;2023-02-26T19:22:09;7.75;;;5.03;;
36995;SDS011;22905;50.340;10.776;2023-02-26T19:27:10;12.75;;;4.65;;
36995;SDS011;22905;50.340;10.776;2023-02-26T19:32:11;9.03;;;4.63;;
36995;SDS011;22905;50.340;10.776;2023-02-26T19:37:12;18.33;;;7.57;;
36995;SDS011;22905;50.340;10.776;2023-02-26T19:42:12;25.30;;;8.40;;
36995;SDS011;22905;50.340;10.776;2023-02-26T19:47:13;29.63;;;9.77;;
36995;SDS011;22905;50.340;10.776;2023-02-26T19:52:14;23.08;;;8.45;;
36995;SDS011;22905;50.340;10.776;2023-02-26T19:57:14;13.98;;;6.93;;
36995;SDS011;22905;50.340;10.776;2023-02-26T20:02:14;9.13;;;5.50;;
36995;SDS011;22905;50.340;10.776;2023-02-26T20:07:15;8.65;;;4.35;;
36995;SDS011;22905;50.340;10.776;2023-02-26T20:12:15;9.53;;;3.87;;
36995;SDS011;22905;50.340;10.776;2023-02-26T20:17:15;12.77;;;4.87;;
36995;SDS011;22905;50.340;10.776;2023-02-26T20:22:16;9.10;;;5.63;;
36995;SDS011;22905;50.340;10.776;2023-02-26T20:27:17;12.43;;;6.07;;
36995;SDS011;22905;50.340;10.776;2023-02-26T20:32:18;6.90;;;4.22;;
36995;SDS011;22905;50.340;10.776;2023-02-26T20:37:19;13.43;;;5.90;;
36995;SDS011;22905;50.340;10.776;2023-02-26T20:42:19;13.38;;;5.75;;
36995;SDS011;22905;50.340;10.776;2023-02-26T20:47:19;9.93;;;5.03;;
36995;SDS011;22905;50.340;10.776;2023-02-26T20:52:20;7.30;;;3.65;;
36995;SDS011;22905;50.340;10.776;2023-02-26T20:57:22;9.47;;;3.70;;
36995;SDS011;22905;50.340;10.776;2023-02-26T21:02:22;6.93;;;3.43;;
36995;SDS011;22905;50.340;10.776;2023-02-26T21:07:22;11.17;;;3.90;;
36995;SDS011;22905;50.340;10.776;2023-02-26T21:12:23;13.73;;;4.22;;
36995;SDS011;22905;50.340;10.776;2023-02-26T21:17:24;9.63;;;4.18;;
36995;SDS011;22905;50.340;10.776;2023-02-26T21:22:25;6.10;;;3.00;;
36995;SDS011;22905;50.340;10.776;2023-02-26T21:27:25;6.10;;;2.50;;
36995;SDS011;22905;50.340;10.776;2023-02-26T21:32:26;7.03;;;3.85;;
36995;SDS011;22905;50.340;10.776;2023-02-26T21:37:26;7.18;;;3.10;;
36995;SDS011;22905;50.340;10.776;2023-02-26T21:42:28;16.13;;;4.25;;
36995;SDS011;22905;50.340;10.776;2023-02-26T21:47:28;11.77;;;5.60;;
36995;SDS011;22905;50.340;10.776;2023-02-26T21:52:28;12.95;;;4.05;;
36995;SDS011;22905;50.340;10.776;2023-02-26T21:57:29;6.60;;;3.58;;
36995;SDS011;22905;50.340;10.776;2023-02-26T22:02:29;6.63;;;2.95;;
36995;SDS011;22905;50.340;10.776;2023-02-26T22:07:29;7.38;;;2.92;;
36995;SDS011;22905;50.340;10.776;2023-02-26T22:12:30;5.57;;;2.75;;
36995;SDS011;22905;50.340;10.776;2023-02-26T22:17:30;8.03;;;2.67;;
36995;SDS011;22905;50.340;10.776;2023-02-26T22:22:30;9.57;;;3.63;;
36995;SDS011;22905;50.340;10.776;2023-02-26T22:27:31;7.57;;;3.30;;
36995;SDS011;22905;50.340;10.776;2023-02-26T22:32:31;6.28;;;3.00;;
36995;SDS011;22905;50.340;10.776;2023-02-26T22:37:31;12.73;;;4.53;;
36995;SDS011;22905;50.340;10.776;2023-02-26T22:42:32;15.60;;;4.57;;
36995;SDS011;22905;50.340;10.776;2023-02-26T22:47:32;10.82;;;3.78;;
36995;SDS011;22905;50.340;10.776;2023-02-26T22:52:32;11.77;;;3.10;;
36995;SDS011;22905;50.340;10.776;2023-02-26T22:57:33;5.93;;;2.72;;
36995;SDS011;22905;50.340;10.776;2023-02-26T23:02:34;8.10;;;2.85;;
36995;SDS011;22905;50.340;10.776;2023-02-26T23:07:35;6.27;;;2.83;;
36995;SDS011;22905;50.340;10.776;2023-02-26T23:12:35;4.80;;;2.58;;
36995;SDS011;22905;50.340;10.776;2023-02-26T23:17:37;9.43;;;2.78;;
36995;SDS011;22905;50.340;10.776;2023-02-26T23:22:38;6.72;;;3.42;;
36995;SDS011;22905;50.340;10.776;2023-02-26T23:27:39;19.52;;;4.18;;
36995;SDS011;22905;50.340;10.776;2023-02-26T23:32:39;7.93;;;3.90;;
36995;SDS011;22905;50.340;10.776;2023-02-26T23:37:40;3.40;;;2.50;;
36995;SDS011;22905;50.340;10.776;2023-02-26T23:42:41;5.33;;;2.87;;
36995;SDS011;22905;50.340;10.776;2023-02-26T23:47:41;9.02;;;4.07;;
36995;SDS011;22905;50.340;10.776;2023-02-26T23:52:41;4.27;;;2.43;;
36995;SDS011;22905;50.340;10.776;2023-02-26T23:57:42;5.78;;;2.13;;
